Reno, NV (89509)

10:17 PM PDT on September 22, 2014 (GMT -0700)
South West Reno | Change Station
CLOSE
Current Station
Personal Weather Station
Location: Reno, NV
Elevation: 4928 ft
Nearby Weather Stations
Active Advisory: Dense Smoke Advisory

Elev 4928 ft 39.48 °N, 119.84 °W | Updated 7 seconds ago

Clear
Clear
63.9 °F
Feels Like 63.9 °F
N
2.3
Wind Variable Wind from WNW
Gusts 2.3 mph

Today
High -- | Low -- °F
--% Chance of Precip.
Yesterday
High -- | Low -- °F
Precip. -- in
6:47 AM 6:56 PM
Waning Crescent, 1% visible
Pressure 29.96 in
Visibility 3.0 miles
Clouds Scattered Clouds 100 ft
Mostly Cloudy 4200 ft
Dew Point 34 °F
Humidity 33%
Rainfall 0.00 in
Snow Depth 0 in , 0 in , 1 in
UV 0 out of 12
Pollen 6.70 out of 12
Air Quality Not available.
Flu Activity Not available.
METAR KRNO 230455Z 28006KT 3SM FU SCT001 BKN042 22/06 A3010 RMK AO2 SLP146 FU SCT001 T02170061

More Conditions Fewer Conditions

Pressure 29.96 in
Visibility 3.0 miles
Clouds Scattered Clouds 100 ft
Mostly Cloudy 4200 ft
Dew Point 34 °F
Humidity 33%
Rainfall 0.00 in
Snow Depth 0 in , 0 in , 1 in
UV 0 out of 12
Pollen 6.70 out of 12
Air Quality Not available.
Flu Activity Not available.
METAR KRNO 230455Z 28006KT 3SM FU SCT001 BKN042 22/06 A3010 RMK AO2 SLP146 FU SCT001 T02170061

More Conditions Fewer Conditions

10-Day Weather Forecast

Almanac

Astronomy

Sep. 22, 2014 Rise Set
Actual Time 6:47 AM PDT 6:56 PM PDT
Civil Twilight 6:20 AM PDT 7:23 PM PDT
Nautical Twilight 5:49 AM PDT 7:54 PM PDT
Astronomical Twilight 5:17 AM PDT 8:26 PM PDT
Moon 5:20 AM PDT (9/22) 6:06 PM PDT (9/22)
Length of Visible Light 13h 02m
Length of Day
12h 09m
Tomorrow will be 2m 34s shorter.
Waning Crescent, 1% of the Moon is Illuminated
Sep 23
Waning Crescent
Sep 24
New
Oct 1
First Quarter
Oct 8
Full
Oct 15
Last Quarter

Yesterday's Extremes

State Highs State Lows

Community

WunderPhotos

Upload Photos

1,755,607 photos uploaded!

Nearby

Snow Depth

Station Depth Elevation
Ward Mountain 0 in 9200 ft
Green Mountain 0 in 8000 ft
Taylor Canyon 1 in 6200 ft
Pole Creek R.S. 0 in 8330 ft
Lamance Creek 0 in 6000 ft

Earthquake Activity

City Distance Mag. Time & Date
No recent earthquake activity has been reported nearby.
Minimum magnitude displayed is 2.5.

Coastal Water Temperatures

Place Temperature
No Stations Reporting

Nearby Weather Stations